Sumiyoshi Maru No.2 — JD3665 — position and weather

sailwx.info

Track history (hours):
 
Tides and Currents Weather Stations Pressure Air Temp Water Temp Dewpoint Dewpoint Depression Visibility Wind Speed Wind Dir Waves Ship Positions

Sumiyoshi Maru No.2

Last reported at 2018-Jul-15 13:03 UTC. Time now 2018-Jul-18 14:34 UTC.
Position N 34°26' E 134°23'.

Length 61 m.

Type: Cargo ship. MMSI: 431005214.

Date/timePositionNaut miles runAvg speedWind from/ knotsBaromVisibWave heightAir tempDewpointWater temp
2018-Jul-15 13:03N 34°26' E 134°23'111.3
2018-Jul-15 12:59N 34°27' E 134°24'511.2
2018-Jul-15 12:30N 34°28' E 134°30'911.1
2018-Jul-15 11:42N 34°31' E 134°41'312.2
2018-Jul-15 11:29N 34°32' E 134°44'1712.3
2018-Jul-15 10:08N 34°36' E 135°03'210.4
2018-Jul-15 09:58N 34°36' E 135°05'4 9.5
2018-Jul-15 09:30N 34°36' E 135°11'510.3
2018-Jul-15 09:00N 34°36' E 135°17'510.1
2018-Jul-15 08:29N 34°36' E 135°23'3 0.1
2018-Jul-14 06:52N 34°35' E 135°27'4 8.9
2018-Jul-14 06:28N 34°34' E 135°23'511.4
2018-Jul-14 06:00N 34°31' E 135°18'611.1
2018-Jul-14 05:29N 34°27' E 135°13'510.2
2018-Jul-14 04:57N 34°23' E 135°08'510.6
2018-Jul-14 04:30N 34°19' E 135°05'4 8.2
2018-Jul-14 04:00N 34°15' E 135°03'1110.8
2018-Jul-14 02:57N 34°04' E 135°03'510.3
2018-Jul-14 02:27N 33°59' E 135°03'  
Track history (hours):
 
Tides and Currents Weather Stations Pressure Air Temp Water Temp Dewpoint Dewpoint Depression Visibility Wind Speed Wind Dir Waves Ship Positions

Sumiyoshi Maru No.2

Last reported at 2018-Jul-15 13:03 UTC. Time now 2018-Jul-18 14:34 UTC.
Position N 34°26' E 134°23'.

Length 61 m.

Type: Cargo ship. MMSI: 431005214.

Date/timePositionNaut miles runAvg speedWind from/ knotsBaromVisibWave heightAir tempDewpointWater temp
2018-Jul-15 13:03N 34°26' E 134°23'111.3
2018-Jul-15 12:59N 34°27' E 134°24'511.2
2018-Jul-15 12:30N 34°28' E 134°30'911.1
2018-Jul-15 11:42N 34°31' E 134°41'312.2
2018-Jul-15 11:29N 34°32' E 134°44'1712.3
2018-Jul-15 10:08N 34°36' E 135°03'210.4
2018-Jul-15 09:58N 34°36' E 135°05'4 9.5
2018-Jul-15 09:30N 34°36' E 135°11'510.3
2018-Jul-15 09:00N 34°36' E 135°17'510.1
2018-Jul-15 08:29N 34°36' E 135°23'3 0.1
2018-Jul-14 06:52N 34°35' E 135°27'4 8.9
2018-Jul-14 06:28N 34°34' E 135°23'511.4
2018-Jul-14 06:00N 34°31' E 135°18'611.1
2018-Jul-14 05:29N 34°27' E 135°13'510.2
2018-Jul-14 04:57N 34°23' E 135°08'510.6
2018-Jul-14 04:30N 34°19' E 135°05'4 8.2
2018-Jul-14 04:00N 34°15' E 135°03'1110.8
2018-Jul-14 02:57N 34°04' E 135°03'510.3
2018-Jul-14 02:27N 33°59' E 135°03'  

Dump ship's entire track history